createdAt,value
2018-12-13T00:00:01.313Z,68.78
2018-12-13T00:02:24.447Z,68.14
2018-12-13T00:04:47.553Z,68.46
2018-12-13T00:07:10.694Z,69.17
2018-12-13T00:09:33.840Z,68.09
2018-12-13T00:11:56.993Z,67.95
2018-12-13T00:14:20.155Z,69.79
2018-12-13T00:16:43.310Z,69.12
2018-12-13T00:19:06.481Z,69.16
2018-12-13T00:21:29.603Z,68.84
2018-12-13T00:23:52.720Z,69.36
2018-12-13T00:26:15.854Z,68.71
2018-12-13T00:28:39.003Z,69.43
2018-12-13T00:31:02.109Z,69.37
2018-12-13T00:33:25.246Z,69.34
2018-12-13T00:35:48.366Z,68.79
2018-12-13T00:38:11.591Z,70.08
2018-12-13T00:40:34.690Z,69.90
2018-12-13T00:42:57.839Z,69.15
2018-12-13T00:45:20.946Z,68.64
2018-12-13T00:47:44.062Z,69.47
2018-12-13T00:50:07.370Z,69.07
2018-12-13T00:52:30.474Z,68.92
2018-12-13T00:54:53.611Z,68.62
2018-12-13T00:57:16.768Z,69.59
2018-12-13T00:59:39.937Z,68.89
2018-12-13T01:02:03.074Z,69.52
2018-12-13T01:04:26.167Z,70.20
2018-12-13T01:06:49.267Z,70.72
2018-12-13T01:09:12.485Z,69.80
2018-12-13T01:11:35.596Z,68.98
2018-12-13T01:13:58.729Z,69.19
2018-12-13T01:16:23.860Z,69.88
2018-12-13T01:18:46.988Z,69.94
2018-12-13T01:21:10.102Z,69.63
2018-12-13T01:23:33.241Z,70.05
2018-12-13T01:25:56.353Z,69.53
2018-12-13T01:28:19.482Z,70.06
2018-12-13T01:30:42.611Z,69.86
2018-12-13T01:33:05.770Z,69.10
2018-12-13T01:35:28.860Z,69.29
2018-12-13T01:37:52.057Z,68.96
2018-12-13T01:40:15.159Z,70.29
2018-12-13T01:42:38.313Z,69.77
2018-12-13T01:45:01.454Z,69.04
2018-12-13T01:47:24.565Z,69.83
2018-12-13T01:49:47.711Z,70.48
2018-12-13T01:52:10.827Z,69.85
2018-12-13T01:54:33.958Z,69.26
2018-12-13T01:56:57.112Z,69.91
2018-12-13T01:59:20.241Z,69.55
2018-12-13T02:01:43.362Z,70.31
2018-12-13T02:04:06.476Z,70.89
2018-12-13T02:06:29.631Z,69.81
2018-12-13T02:08:52.748Z,70.64
2018-12-13T02:11:15.884Z,70.10
2018-12-13T02:13:39.047Z,69.97
2018-12-13T02:16:02.150Z,70.33
2018-12-13T02:18:25.270Z,69.88
2018-12-13T02:20:48.708Z,70.42
2018-12-13T02:23:11.859Z,70.44
2018-12-13T02:25:34.966Z,69.98
2018-12-13T02:27:58.414Z,70.83
2018-12-13T02:30:21.590Z,70.97
2018-12-13T02:32:44.713Z,70.28
2018-12-13T02:35:07.920Z,70.08
2018-12-13T02:37:31.038Z,69.84
2018-12-13T02:39:54.185Z,72.23
2018-12-13T02:42:17.337Z,70.91
2018-12-13T02:44:40.754Z,70.33
2018-12-13T02:47:03.974Z,70.92
2018-12-13T02:49:27.079Z,70.64
2018-12-13T02:51:50.208Z,71.50
2018-12-13T02:54:13.378Z,71.56
2018-12-13T02:56:36.586Z,70.22
2018-12-13T02:58:59.767Z,71.27
2018-12-13T03:01:22.881Z,70.89
2018-12-13T03:03:46.028Z,70.93
2018-12-13T03:06:09.143Z,71.49
2018-12-13T03:08:32.267Z,70.89
2018-12-13T03:10:55.436Z,72.47
2018-12-13T03:13:18.563Z,71.21
2018-12-13T03:15:41.681Z,72.25
2018-12-13T03:18:04.779Z,71.25
2018-12-13T03:20:27.929Z,71.14
2018-12-13T03:22:51.035Z,71.17
2018-12-13T03:25:14.236Z,72.26
2018-12-13T03:27:37.414Z,70.70
2018-12-13T03:30:00.539Z,71.88
2018-12-13T03:32:23.680Z,70.96
2018-12-13T03:34:46.780Z,70.73
2018-12-13T03:37:09.943Z,70.68
2018-12-13T03:39:33.036Z,70.29
2018-12-13T03:41:56.172Z,71.43
2018-12-13T03:44:19.302Z,70.20
2018-12-13T03:46:42.767Z,71.85
2018-12-13T03:49:05.881Z,72.62
2018-12-13T03:51:29.025Z,70.53
2018-12-13T03:53:52.134Z,71.39
2018-12-13T03:56:15.267Z,70.67
2018-12-13T03:58:38.378Z,72.38
2018-12-13T04:01:01.505Z,70.71
2018-12-13T04:03:24.618Z,71.39
2018-12-13T04:05:47.728Z,71.73
2018-12-13T04:08:10.866Z,73.03
2018-12-13T04:10:33.982Z,70.97
2018-12-13T04:12:57.097Z,70.48
2018-12-13T04:15:20.252Z,69.98
2018-12-13T04:17:43.370Z,70.17
2018-12-13T04:20:06.642Z,70.08
2018-12-13T04:22:29.772Z,71.05
2018-12-13T04:24:52.887Z,70.85
2018-12-13T04:27:16.041Z,69.17
2018-12-13T04:29:39.165Z,69.26
2018-12-13T04:32:02.336Z,70.51
2018-12-13T04:34:25.502Z,69.87
2018-12-13T04:36:48.658Z,71.05
2018-12-13T04:42:12.444Z,69.84
2018-12-13T04:44:41.051Z,71.60
2018-12-13T04:47:09.797Z,71.32
2018-12-13T04:49:32.467Z,71.02
2018-12-13T04:51:55.595Z,71.47
2018-12-13T04:54:18.709Z,70.96
2018-12-13T04:56:41.824Z,69.68
2018-12-13T04:59:05.052Z,70.98
2018-12-13T05:01:28.135Z,70.00
2018-12-13T05:03:51.225Z,70.74
2018-12-13T05:06:14.384Z,72.36
2018-12-13T05:08:37.492Z,70.21
2018-12-13T05:11:00.653Z,70.99
2018-12-13T05:13:23.772Z,72.32
2018-12-13T05:15:46.854Z,72.46
2018-12-13T05:18:10.088Z,72.75
2018-12-13T05:20:33.192Z,71.19
2018-12-13T05:22:56.313Z,70.03
2018-12-13T05:25:19.486Z,70.46
2018-12-13T05:27:42.619Z,71.32
2018-12-13T05:30:05.785Z,71.97
2018-12-13T05:32:28.935Z,70.85
2018-12-13T05:34:52.056Z,71.46
2018-12-13T05:37:15.265Z,71.46
2018-12-13T05:39:38.358Z,71.42
2018-12-13T05:42:01.497Z,70.36
2018-12-13T05:44:24.628Z,70.97
2018-12-13T05:46:47.748Z,70.85
2018-12-13T05:49:10.879Z,71.15
2018-12-13T05:51:34.019Z,71.58
2018-12-13T05:53:57.152Z,70.50
2018-12-13T05:56:20.260Z,72.14
2018-12-13T05:58:43.401Z,72.41
2018-12-13T06:01:06.546Z,71.51
2018-12-13T06:03:29.677Z,71.43
2018-12-13T06:05:52.801Z,72.02
2018-12-13T06:08:15.918Z,71.28
2018-12-13T06:10:39.162Z,71.20
2018-12-13T06:13:02.313Z,69.96
2018-12-13T06:15:25.398Z,70.34
2018-12-13T06:17:48.550Z,71.11
2018-12-13T06:20:11.673Z,70.30
2018-12-13T06:22:34.822Z,69.01
2018-12-13T06:24:57.974Z,70.39
2018-12-13T06:27:21.238Z,70.43
2018-12-13T06:29:48.880Z,70.95
2018-12-13T06:32:09.462Z,70.56
2018-12-13T06:34:32.620Z,70.49
2018-12-13T06:36:55.730Z,70.32
2018-12-13T06:39:19.023Z,70.21
2018-12-13T06:41:42.189Z,70.01
2018-12-13T06:44:05.287Z,71.01
2018-12-13T06:46:28.446Z,70.49
2018-12-13T06:48:51.546Z,69.18
2018-12-13T06:51:14.668Z,69.86
2018-12-13T06:53:37.805Z,69.46
2018-12-13T06:56:00.920Z,70.44
2018-12-13T06:58:24.212Z,70.79
2018-12-13T07:00:47.334Z,69.74
2018-12-13T07:03:10.442Z,68.80
2018-12-13T07:05:33.554Z,69.98
2018-12-13T07:07:56.681Z,69.22
2018-12-13T07:10:19.821Z,69.14
2018-12-13T07:12:42.976Z,69.64
2018-12-13T07:15:06.167Z,68.40
2018-12-13T07:17:29.280Z,68.35
2018-12-13T07:19:52.430Z,68.70
2018-12-13T07:22:15.523Z,69.51
2018-12-13T07:24:38.675Z,68.90
2018-12-13T07:27:01.808Z,68.78
2018-12-13T07:29:24.926Z,69.15
2018-12-13T07:31:48.072Z,69.74
2018-12-13T07:34:12.014Z,69.43
2018-12-13T07:36:35.189Z,69.86
2018-12-13T07:38:58.327Z,70.81
2018-12-13T07:41:21.450Z,71.17
2018-12-13T07:43:44.608Z,71.45
2018-12-13T07:46:07.726Z,69.68
2018-12-13T07:48:30.905Z,70.00
2018-12-13T07:50:54.079Z,70.48
2018-12-13T07:53:17.189Z,70.06
2018-12-13T07:55:40.327Z,69.94
2018-12-13T07:58:03.513Z,69.77
2018-12-13T08:00:26.621Z,68.68
2018-12-13T08:02:49.749Z,69.31
2018-12-13T08:05:12.920Z,69.74
2018-12-13T08:07:36.025Z,69.39
2018-12-13T08:09:59.153Z,70.04
2018-12-13T08:12:22.290Z,68.39
2018-12-13T08:14:45.413Z,69.36
2018-12-13T08:17:08.564Z,70.02
2018-12-13T08:19:31.684Z,69.92
2018-12-13T08:21:54.847Z,69.62
2018-12-13T08:24:17.963Z,69.02
2018-12-13T08:26:41.088Z,69.66
2018-12-13T08:29:04.278Z,68.40
2018-12-13T08:31:27.381Z,68.48
2018-12-13T08:33:50.493Z,68.09
2018-12-13T08:36:13.616Z,69.41
2018-12-13T08:38:36.724Z,68.33
2018-12-13T08:40:59.860Z,68.23
2018-12-13T08:43:23.073Z,69.52
2018-12-13T08:45:46.246Z,69.39
2018-12-13T08:48:09.358Z,68.62
2018-12-13T08:50:32.493Z,69.37
2018-12-13T08:52:55.608Z,68.55
2018-12-13T08:55:18.871Z,68.80
2018-12-13T08:57:41.971Z,68.14
2018-12-13T09:00:05.587Z,69.86
2018-12-13T09:02:28.707Z,67.95
2018-12-13T09:04:51.881Z,71.20
2018-12-13T09:07:15.116Z,71.01
2018-12-13T09:09:38.212Z,69.91
2018-12-13T09:12:01.357Z,69.60
2018-12-13T09:14:24.480Z,69.61
2018-12-13T09:16:47.646Z,70.14
2018-12-13T09:19:10.870Z,70.13
2018-12-13T09:21:33.978Z,69.55
2018-12-13T09:23:57.100Z,69.13
2018-12-13T09:26:20.214Z,70.08
2018-12-13T09:28:43.343Z,68.96
2018-12-13T09:31:06.468Z,69.21
2018-12-13T09:33:29.579Z,69.61
2018-12-13T09:35:52.687Z,69.77
2018-12-13T09:38:15.802Z,68.48
2018-12-13T09:40:38.927Z,68.73
2018-12-13T09:43:02.066Z,68.66
2018-12-13T09:45:25.161Z,67.42
2018-12-13T09:47:48.347Z,68.50
2018-12-13T09:50:11.466Z,69.03
2018-12-13T09:52:34.604Z,69.28
2018-12-13T09:54:57.850Z,68.69
2018-12-13T09:57:21.018Z,69.22
2018-12-13T09:59:44.119Z,67.84
2018-12-13T10:02:07.298Z,67.36
2018-12-13T10:04:30.415Z,68.41
2018-12-13T10:06:53.559Z,68.23
2018-12-13T10:09:16.696Z,68.53
2018-12-13T10:11:39.872Z,69.35
2018-12-13T10:14:03.040Z,67.67
2018-12-13T10:16:26.153Z,68.26
2018-12-13T10:18:49.303Z,68.70
2018-12-13T10:21:12.431Z,67.33
2018-12-13T10:23:35.550Z,69.24
2018-12-13T10:25:59.671Z,68.93
2018-12-13T10:28:23.059Z,68.71
2018-12-13T10:30:46.311Z,68.89
2018-12-13T10:33:09.548Z,67.37
2018-12-13T10:35:32.677Z,67.76
2018-12-13T10:37:55.788Z,68.91
2018-12-13T10:40:18.957Z,69.01
2018-12-13T10:42:42.124Z,69.23
2018-12-13T10:45:05.751Z,68.11
2018-12-13T10:47:28.873Z,68.76
2018-12-13T10:49:51.985Z,67.27
2018-12-13T10:52:15.113Z,66.48
2018-12-13T10:54:38.232Z,66.75
2018-12-13T10:57:01.473Z,67.27
2018-12-13T10:59:24.630Z,67.67
2018-12-13T11:01:53.375Z,67.25
2018-12-13T11:04:16.512Z,68.31
2018-12-13T11:06:39.618Z,67.14
2018-12-13T11:09:02.798Z,67.45
2018-12-13T11:11:25.941Z,68.80
2018-12-13T11:13:49.073Z,69.22
2018-12-13T11:16:12.168Z,68.30
2018-12-13T11:18:35.357Z,68.31
2018-12-13T11:20:58.446Z,68.88
2018-12-13T11:23:21.618Z,69.27
2018-12-13T11:25:44.723Z,67.47
2018-12-13T11:28:21.443Z,67.27
2018-12-13T11:30:44.713Z,69.44
2018-12-13T11:33:07.807Z,69.85
2018-12-13T11:35:30.946Z,68.25
2018-12-13T11:37:54.064Z,69.45
2018-12-13T11:40:17.217Z,69.06
2018-12-13T11:42:40.333Z,68.91
2018-12-13T11:45:03.655Z,69.04
2018-12-13T11:47:26.781Z,69.68
2018-12-13T11:49:49.906Z,70.14
2018-12-13T11:52:13.038Z,69.90
2018-12-13T11:54:38.921Z,69.42
2018-12-13T11:57:02.099Z,69.82
2018-12-13T11:59:25.228Z,68.70
2018-12-13T12:01:48.340Z,68.38
2018-12-13T12:04:11.488Z,68.50
2018-12-13T12:06:34.630Z,69.17
2018-12-13T12:08:57.780Z,69.64
2018-12-13T12:11:20.908Z,67.90
2018-12-13T12:13:44.003Z,68.31
2018-12-13T12:16:07.157Z,68.96
2018-12-13T12:18:30.350Z,69.66
2018-12-13T12:20:53.471Z,68.76
2018-12-13T12:23:16.642Z,68.84
2018-12-13T12:25:39.747Z,69.51
2018-12-13T12:28:02.887Z,68.48
2018-12-13T12:30:26.051Z,69.28
2018-12-13T12:32:49.211Z,69.14
2018-12-13T12:35:12.512Z,68.97
2018-12-13T12:37:35.724Z,69.15
2018-12-13T12:39:58.973Z,70.08
2018-12-13T12:42:22.078Z,69.98
2018-12-13T12:44:45.226Z,70.51
2018-12-13T12:47:08.527Z,70.26
2018-12-13T12:49:31.645Z,70.55
2018-12-13T12:51:54.795Z,69.38
2018-12-13T12:54:17.922Z,71.18
2018-12-13T12:56:41.087Z,69.74
2018-12-13T12:59:04.262Z,69.69
2018-12-13T13:01:27.386Z,70.53
2018-12-13T13:03:50.577Z,70.93
2018-12-13T13:06:13.750Z,70.34
2018-12-13T13:08:36.922Z,68.98
2018-12-13T13:11:00.027Z,70.49
2018-12-13T13:13:23.141Z,69.42
2018-12-13T13:15:46.259Z,69.26
2018-12-13T13:18:09.399Z,70.24
2018-12-13T13:20:32.619Z,69.47
2018-12-13T13:22:55.744Z,70.23
2018-12-13T13:25:18.847Z,71.72
2018-12-13T13:27:41.998Z,69.75
2018-12-13T13:30:05.701Z,68.87
2018-12-13T13:32:28.833Z,69.33
2018-12-13T13:34:51.961Z,68.65
2018-12-13T13:37:15.353Z,69.29
2018-12-13T13:39:38.479Z,69.28
2018-12-13T13:42:01.592Z,70.27
2018-12-13T13:44:26.696Z,70.24
2018-12-13T13:46:49.821Z,70.67
2018-12-13T13:49:13.218Z,70.12
2018-12-13T13:51:36.384Z,69.95
2018-12-13T13:53:59.522Z,70.07
2018-12-13T13:56:22.646Z,68.99
2018-12-13T13:58:45.816Z,69.70
2018-12-13T14:01:09.249Z,69.72
2018-12-13T14:03:32.361Z,69.29
2018-12-13T14:05:55.459Z,69.03
2018-12-13T14:08:18.644Z,67.81
2018-12-13T14:10:41.752Z,68.50
2018-12-13T14:13:04.988Z,69.37
2018-12-13T14:15:28.096Z,69.42
2018-12-13T14:17:51.249Z,70.96
2018-12-13T14:20:14.403Z,69.31
2018-12-13T14:22:37.548Z,69.60
2018-12-13T14:25:00.670Z,70.83
2018-12-13T14:27:23.843Z,70.34
2018-12-13T14:29:46.949Z,69.98
2018-12-13T14:32:10.142Z,69.48
2018-12-13T14:34:33.278Z,68.88
2018-12-13T14:36:56.387Z,68.54
2018-12-13T14:39:19.520Z,68.48
2018-12-13T14:41:42.678Z,69.11
2018-12-13T14:44:05.844Z,68.16
2018-12-13T14:46:28.970Z,70.34
2018-12-13T14:48:52.149Z,69.00
2018-12-13T14:51:15.268Z,68.21
2018-12-13T14:53:38.542Z,68.17
2018-12-13T14:56:01.717Z,69.68
2018-12-13T14:58:24.884Z,69.77
2018-12-13T15:00:48.072Z,68.65
2018-12-13T15:03:11.248Z,69.29
2018-12-13T15:05:34.398Z,68.75
2018-12-13T15:07:57.543Z,69.85
2018-12-13T15:10:20.670Z,69.77
2018-12-13T15:12:43.798Z,68.61
2018-12-13T15:15:07.019Z,69.02
2018-12-13T15:17:30.154Z,69.54
2018-12-13T15:19:53.293Z,69.00
2018-12-13T15:22:16.413Z,68.65
2018-12-13T15:24:39.586Z,69.44
2018-12-13T15:27:02.722Z,68.64
2018-12-13T15:29:25.833Z,68.70
2018-12-13T15:31:48.999Z,69.34
2018-12-13T15:34:12.127Z,69.47
2018-12-13T15:36:35.292Z,69.82
2018-12-13T15:38:58.436Z,68.89
2018-12-13T15:41:21.557Z,70.19
2018-12-13T15:43:44.685Z,69.70
2018-12-13T15:46:07.789Z,70.43
2018-12-13T15:48:30.930Z,70.42
2018-12-13T15:50:54.061Z,70.20
2018-12-13T15:53:17.224Z,70.48
2018-12-13T15:55:40.417Z,70.60
2018-12-13T15:58:03.556Z,69.83
2018-12-13T16:00:26.786Z,70.32
2018-12-13T16:02:49.909Z,70.49
2018-12-13T16:05:13.054Z,70.62
2018-12-13T16:07:36.217Z,70.54
2018-12-13T16:10:03.858Z,70.30
2018-12-13T16:12:24.682Z,70.12
2018-12-13T16:14:47.872Z,69.63
2018-12-13T16:17:11.007Z,69.64
2018-12-13T16:19:34.165Z,69.31
2018-12-13T16:21:57.268Z,70.50
2018-12-13T16:24:20.421Z,69.77
2018-12-13T16:26:43.569Z,69.63
2018-12-13T16:29:06.682Z,69.95
2018-12-13T16:31:29.826Z,69.76
2018-12-13T16:33:52.944Z,69.01
2018-12-13T16:36:16.063Z,68.65
2018-12-13T16:38:39.262Z,69.21
2018-12-13T16:41:02.353Z,69.13
2018-12-13T16:43:25.548Z,69.14
2018-12-13T16:45:48.675Z,70.01
2018-12-13T16:48:11.820Z,69.61
2018-12-13T16:50:35.048Z,69.36
2018-12-13T16:52:58.191Z,69.08
2018-12-13T16:55:21.355Z,70.55
2018-12-13T16:57:44.466Z,70.62
2018-12-13T17:00:08.141Z,69.83
2018-12-13T17:02:31.343Z,70.28
2018-12-13T17:04:54.458Z,70.52
2018-12-13T17:07:17.619Z,70.77
2018-12-13T17:09:40.737Z,69.95
2018-12-13T17:12:03.963Z,70.91
2018-12-13T17:14:27.106Z,70.54
2018-12-13T17:16:50.216Z,71.32
2018-12-13T17:19:13.392Z,70.78
2018-12-13T17:21:36.512Z,70.97
2018-12-13T17:23:59.634Z,70.37
2018-12-13T17:26:22.803Z,70.48
2018-12-13T17:28:45.934Z,70.63
2018-12-13T17:31:09.247Z,69.78
2018-12-13T17:33:32.383Z,70.88
2018-12-13T17:35:55.685Z,71.38
2018-12-13T17:38:18.825Z,70.29
2018-12-13T17:40:41.993Z,70.13
2018-12-13T17:43:05.128Z,70.64
2018-12-13T17:45:30.236Z,70.83
2018-12-13T17:47:53.348Z,73.06
2018-12-13T17:50:16.475Z,71.74
2018-12-13T17:52:39.624Z,71.17
2018-12-13T17:55:02.834Z,71.12
2018-12-13T17:57:25.986Z,70.64
2018-12-13T17:59:49.115Z,70.88
2018-12-13T18:02:12.245Z,71.48
2018-12-13T18:04:35.413Z,70.83
2018-12-13T18:06:58.531Z,70.23
2018-12-13T18:09:21.700Z,69.89
2018-12-13T18:11:44.888Z,70.67
2018-12-13T18:14:08.051Z,71.11
2018-12-13T18:16:31.188Z,71.93
2018-12-13T18:18:54.379Z,70.15
2018-12-13T18:21:17.604Z,70.32
2018-12-13T18:23:40.727Z,71.43
2018-12-13T18:26:03.912Z,71.56
2018-12-13T18:28:27.088Z,70.77
2018-12-13T18:30:50.251Z,68.95
2018-12-13T18:33:13.430Z,69.70
2018-12-13T18:35:36.561Z,70.45
2018-12-13T18:37:59.828Z,70.44
2018-12-13T18:40:22.984Z,69.95
2018-12-13T18:42:46.128Z,69.60
2018-12-13T18:45:09.382Z,69.79
2018-12-13T18:47:32.544Z,69.90
2018-12-13T18:49:55.683Z,69.36
2018-12-13T18:52:18.842Z,70.68
2018-12-13T18:54:42.002Z,70.50
2018-12-13T18:57:05.185Z,69.63
2018-12-13T18:59:28.358Z,69.91
2018-12-13T19:01:51.507Z,69.04
2018-12-13T19:04:14.674Z,70.54
2018-12-13T19:06:37.843Z,70.76
2018-12-13T19:09:00.992Z,69.86
2018-12-13T19:11:24.117Z,68.71
2018-12-13T19:13:47.240Z,69.43
2018-12-13T19:16:10.400Z,69.23
2018-12-13T19:18:34.162Z,69.71
2018-12-13T19:20:57.319Z,69.36
2018-12-13T19:23:20.551Z,68.42
2018-12-13T19:25:43.656Z,70.05
2018-12-13T19:28:06.828Z,69.16
2018-12-13T19:30:29.981Z,69.73
2018-12-13T19:32:53.191Z,69.33
2018-12-13T19:35:19.361Z,68.61
2018-12-13T19:37:41.491Z,70.14
2018-12-13T19:40:06.754Z,68.91
2018-12-13T19:42:29.903Z,68.99
2018-12-13T19:44:53.093Z,68.01
2018-12-13T19:47:16.253Z,69.28
2018-12-13T19:49:39.389Z,67.65
2018-12-13T19:52:02.542Z,70.07
2018-12-13T19:54:25.683Z,68.75
2018-12-13T19:56:48.903Z,70.68
2018-12-13T19:59:12.040Z,70.54
2018-12-13T20:01:35.198Z,69.61
2018-12-13T20:03:58.330Z,69.86
2018-12-13T20:06:21.507Z,68.93
2018-12-13T20:08:44.652Z,68.55
2018-12-13T20:11:07.758Z,68.31
2018-12-13T20:13:30.991Z,68.27
2018-12-13T20:15:54.105Z,69.31
2018-12-13T20:18:17.270Z,68.32
2018-12-13T20:20:40.440Z,68.05
2018-12-13T20:23:03.564Z,68.55
2018-12-13T20:25:26.713Z,67.93
2018-12-13T20:27:49.877Z,68.73
2018-12-13T20:30:13.106Z,67.36
2018-12-13T20:32:36.249Z,68.65
2018-12-13T20:34:59.448Z,68.02
2018-12-13T20:39:51.900Z,68.78
2018-12-13T20:42:15.028Z,68.46
2018-12-13T20:44:38.193Z,68.01
2018-12-13T20:47:01.333Z,68.96
2018-12-13T20:49:24.486Z,68.62
2018-12-13T20:51:47.602Z,68.74
2018-12-13T20:54:10.738Z,68.75
2018-12-13T20:56:33.886Z,69.96
2018-12-13T20:58:57.015Z,68.84
2018-12-13T21:01:20.191Z,68.57
2018-12-13T21:03:43.371Z,69.25
2018-12-13T21:06:06.484Z,70.03
2018-12-13T21:08:29.607Z,68.88
2018-12-13T21:10:52.809Z,68.60
2018-12-13T21:13:16.085Z,69.19
2018-12-13T21:15:39.254Z,67.97
2018-12-13T21:18:02.452Z,68.37
2018-12-13T21:20:25.629Z,68.81
2018-12-13T21:22:48.832Z,67.58
2018-12-13T21:25:12.009Z,68.64
2018-12-13T21:27:35.183Z,67.51
2018-12-13T21:29:58.402Z,67.63
2018-12-13T21:32:21.536Z,68.11
2018-12-13T21:34:44.701Z,67.98
2018-12-13T21:37:07.830Z,67.98
2018-12-13T21:39:30.997Z,67.89
2018-12-13T21:41:54.159Z,67.87
2018-12-13T21:44:17.469Z,67.13
2018-12-13T21:46:40.623Z,66.90
2018-12-13T21:49:03.751Z,68.12
2018-12-13T21:51:26.895Z,66.60
2018-12-13T21:53:50.033Z,66.97
2018-12-13T21:56:13.147Z,66.80
2018-12-13T21:58:36.318Z,66.60
2018-12-13T22:00:59.442Z,66.96
2018-12-13T22:03:22.596Z,68.19
2018-12-13T22:05:45.706Z,68.24
2018-12-13T22:08:08.873Z,67.50
2018-12-13T22:10:32.049Z,68.16
2018-12-13T22:12:55.176Z,67.60
2018-12-13T22:15:18.376Z,67.31
2018-12-13T22:17:41.491Z,68.24
2018-12-13T22:20:06.343Z,66.90
2018-12-13T22:22:29.515Z,68.46
2018-12-13T22:24:52.654Z,67.12
2018-12-13T22:27:15.833Z,67.79
2018-12-13T22:29:39.051Z,67.73
2018-12-13T22:32:02.661Z,67.68
2018-12-13T22:34:26.054Z,67.73
2018-12-13T22:36:49.532Z,68.04
2018-12-13T22:39:12.701Z,68.17
2018-12-13T22:41:35.836Z,67.96
2018-12-13T22:43:58.968Z,66.70
2018-12-13T22:46:22.165Z,66.88
2018-12-13T22:48:45.356Z,66.61
2018-12-13T22:51:08.549Z,67.38
2018-12-13T22:53:31.720Z,67.03
2018-12-13T22:55:54.850Z,68.34
2018-12-13T22:58:17.962Z,67.62
2018-12-13T23:00:41.430Z,68.42
2018-12-13T23:03:04.732Z,67.92
2018-12-13T23:05:27.959Z,67.68
2018-12-13T23:07:51.076Z,67.96
2018-12-13T23:10:14.190Z,67.45
2018-12-13T23:12:37.314Z,67.29
2018-12-13T23:15:00.432Z,68.86
2018-12-13T23:17:24.269Z,68.94
2018-12-13T23:19:47.390Z,68.54
2018-12-13T23:22:10.529Z,68.20
2018-12-13T23:24:33.662Z,68.04
2018-12-13T23:26:56.831Z,68.19
2018-12-13T23:29:19.968Z,68.26
2018-12-13T23:31:43.093Z,68.03
2018-12-13T23:34:06.245Z,68.60
2018-12-13T23:36:29.424Z,67.23
2018-12-13T23:38:52.525Z,68.55
2018-12-13T23:41:15.675Z,68.38
2018-12-13T23:43:38.816Z,68.53
2018-12-13T23:46:01.980Z,68.18
2018-12-13T23:48:25.191Z,68.48
2018-12-13T23:50:48.382Z,67.20
2018-12-13T23:53:11.610Z,67.61
2018-12-13T23:55:34.763Z,67.52
2018-12-13T23:57:57.883Z,67.56
